Time;durP1;ratioP1;P1;durP2;ratioP2;P2;SDS_P1;SDS_P2;PMS_P1;PMS_P2;Temp;Humidity;BMP_temperature;BMP_pressure;BME280_temperature;BME280_humidity;BME280_pressure;Samples;Min_cycle;Max_cycle;Signal;HPM_P1;HPM_P2
2022/06/05 00:01:22;;;;;;;9.57;6.85;;;;;;;;;;5093842;28;20098;-68
2022/06/05 00:03:51;;;;;;;11.63;6.53;;;;;;;;;;5093658;28;20044;-68
2022/06/05 00:06:22;;;;;;;9.63;6.97;;;;;;;;;;5093649;28;20106;-68
2022/06/05 00:09:07;;;;;;;9.20;6.80;;;;;;;;;;5093281;28;20480;-68
2022/06/05 00:11:37;;;;;;;9.50;6.80;;;;;;;;;;5091952;28;20048;-68
2022/06/05 00:14:04;;;;;;;9.77;6.82;;;;;;;;;;5093647;28;20051;-68
2022/06/05 00:16:30;;;;;;;9.20;6.93;;;;;;;;;;5093239;28;20044;-68
2022/06/05 00:18:57;;;;;;;11.32;7.25;;;;;;;;;;5092949;28;20134;-68
2022/06/05 00:21:23;;;;;;;8.02;6.97;;;;;;;;;;5093126;28;20557;-68
2022/06/05 00:23:51;;;;;;;9.43;7.43;;;;;;;;;;5092074;28;20089;-68
2022/06/05 00:26:18;;;;;;;8.13;6.25;;;;;;;;;;5091914;28;20044;-68
2022/06/05 00:28:47;;;;;;;9.65;6.78;;;;;;;;;;5092970;28;20075;-68
2022/06/05 00:31:26;;;;;;;7.35;6.65;;;;;;;;;;5092914;28;20464;-68
2022/06/05 00:33:52;;;;;;;8.30;6.90;;;;;;;;;;5092817;28;20127;-68
2022/06/05 00:36:24;;;;;;;12.77;8.70;;;;;;;;;;5092811;28;20086;-68
2022/06/05 00:38:51;;;;;;;9.30;7.47;;;;;;;;;;5091520;28;20511;-68
2022/06/05 00:41:36;;;;;;;10.95;7.78;;;;;;;;;;5092873;28;20095;-68
2022/06/05 00:44:04;;;;;;;8.40;7.45;;;;;;;;;;5092745;28;20071;-68
2022/06/05 00:46:30;;;;;;;;;;;;;;;;;;5093385;28;20055;-68
2022/06/05 00:48:57;;;;;;;11.98;7.32;;;;;;;;;;5092961;28;19920;-68
2022/06/05 00:51:24;;;;;;;10.73;7.43;;;;;;;;;;5092514;28;20086;-68
2022/06/05 00:53:51;;;;;;;10.27;7.75;;;;;;;;;;5092552;28;20076;-68
2022/06/05 00:56:17;;;;;;;8.80;7.37;;;;;;;;;;5091467;28;20036;-68
2022/06/05 00:58:44;;;;;;;9.10;7.00;;;;;;;;;;5092386;28;20312;-68
2022/06/05 01:01:11;;;;;;;9.02;7.40;;;;;;;;;;5092557;28;20454;-68
2022/06/05 01:03:37;;;;;;;7.65;6.85;;;;;;;;;;5092710;28;20047;-68
2022/06/05 01:06:04;;;;;;;11.93;7.63;;;;;;;;;;5092476;28;20055;-68
2022/06/05 01:08:31;;;;;;;9.25;6.53;;;;;;;;;;5092199;28;20522;-68
2022/06/05 01:11:06;;;;;;;9.95;6.55;;;;;;;;;;5082238;28;20489;-68
2022/06/05 01:13:33;;;;;;;9.70;6.78;;;;;;;;;;5077053;28;20101;-68
2022/06/05 01:16:18;;;;;;;7.85;6.55;;;;;;;;;;5091155;28;20079;-68
2022/06/05 01:18:58;;;;;;;9.48;7.05;;;;;;;;;;5092561;28;20083;-68
2022/06/05 01:21:44;;;;;;;10.00;7.28;;;;;;;;;;5092442;28;20079;-68
2022/06/05 01:24:22;;;;;;;10.65;7.30;;;;;;;;;;5091988;28;20048;-68
2022/06/05 01:26:56;;;;;;;8.70;7.10;;;;;;;;;;5092484;28;20130;-68
2022/06/05 01:29:34;;;;;;;8.25;7.45;;;;;;;;;;5090888;28;20044;-68
2022/06/05 01:32:07;;;;;;;10.77;7.82;;;;;;;;;;5091867;28;20173;-68
2022/06/05 01:34:36;;;;;;;11.80;7.72;;;;;;;;;;5091933;28;20127;-68
2022/06/05 01:37:03;;;;;;;9.90;7.45;;;;;;;;;;5091586;28;20110;-68
2022/06/05 01:39:32;;;;;;;11.80;8.05;;;;;;;;;;5091852;28;20091;-68
2022/06/05 01:42:01;;;;;;;10.40;7.93;;;;;;;;;;5091955;28;20052;-68
2022/06/05 01:44:36;;;;;;;11.45;7.90;;;;;;;;;;5091571;28;20091;-68
2022/06/05 01:47:05;;;;;;;10.85;8.45;;;;;;;;;;5091960;28;20090;-68
2022/06/05 01:49:45;;;;;;;12.20;8.63;;;;;;;;;;5091607;28;20503;-68
2022/06/05 01:52:27;;;;;;;13.48;8.35;;;;;;;;;;5091672;28;20044;-68
2022/06/05 01:54:59;;;;;;;9.50;8.20;;;;;;;;;;5090679;28;20076;-68
2022/06/05 01:57:27;;;;;;;11.70;8.63;;;;;;;;;;5091573;28;20527;-68
2022/06/05 01:59:53;;;;;;;;;;;;;;;;;;5092366;28;20089;-68
2022/06/05 02:02:27;;;;;;;9.93;7.70;;;;;;;;;;5091684;28;19920;-68
2022/06/05 02:05:01;;;;;;;11.77;8.88;;;;;;;;;;5091700;28;20126;-69
2022/06/05 02:07:31;;;;;;;11.02;8.15;;;;;;;;;;5091651;28;20095;-68
2022/06/05 02:10:07;;;;;;;13.20;9.32;;;;;;;;;;5091611;28;20094;-68
2022/06/05 02:12:34;;;;;;;10.75;8.55;;;;;;;;;;5090580;28;20159;-68
2022/06/05 02:15:00;;;;;;;12.07;9.50;;;;;;;;;;5091459;28;20040;-68
2022/06/05 02:17:29;;;;;;;11.87;9.30;;;;;;;;;;5091770;28;20048;-69
2022/06/05 02:19:55;;;;;;;10.90;8.15;;;;;;;;;;5091316;28;20083;-69
2022/06/05 02:22:24;;;;;;;9.68;8.35;;;;;;;;;;5091706;28;20087;-68
2022/06/05 02:24:52;;;;;;;11.52;9.52;;;;;;;;;;5091571;28;20094;-69
2022/06/05 02:27:24;;;;;;;11.35;9.07;;;;;;;;;;5091389;28;20666;-69
2022/06/05 02:29:51;;;;;;;12.13;8.70;;;;;;;;;;5091487;28;20159;-69
2022/06/05 02:32:23;;;;;;;12.60;8.73;;;;;;;;;;5091226;28;20076;-69
2022/06/05 02:34:56;;;;;;;11.82;8.70;;;;;;;;;;5091159;28;20083;-68
2022/06/05 02:37:32;;;;;;;10.23;8.05;;;;;;;;;;5091735;28;20044;-68
2022/06/05 02:39:58;;;;;;;10.57;8.35;;;;;;;;;;5091134;28;20514;-69
2022/06/05 02:42:33;;;;;;;12.18;8.60;;;;;;;;;;5072403;28;20072;-68
2022/06/05 02:45:07;;;;;;;11.32;8.45;;;;;;;;;;5070842;28;20115;-68
2022/06/05 02:47:52;;;;;;;13.55;8.70;;;;;;;;;;5090590;28;20048;-68
2022/06/05 02:50:32;;;;;;;12.25;8.90;;;;;;;;;;5094634;28;20093;-68
2022/06/05 02:53:00;;;;;;;11.15;8.68;;;;;;;;;;5094892;28;20764;-68
2022/06/05 02:55:26;;;;;;;;;;;;;;;;;;5090961;28;20133;-68
2022/06/05 02:57:52;;;;;;;12.95;9.50;;;;;;;;;;5092300;28;19977;-68
2022/06/05 03:00:21;;;;;;;10.57;8.95;;;;;;;;;;5094628;28;20076;-68
2022/06/05 03:05:33;;;;;;;10.20;8.68;;;;;;;;;;5094607;28;20508;-68
2022/06/05 03:08:00;;;;;;;10.85;9.63;;;;;;;;;;5094787;28;20438;-69
2022/06/05 03:10:26;;;;;;;12.75;8.93;;;;;;;;;;5094606;28;20085;-68
2022/06/05 03:12:53;;;;;;;10.63;9.53;;;;;;;;;;5094647;28;20076;-68
2022/06/05 03:15:19;;;;;;;11.02;9.20;;;;;;;;;;5094711;28;20078;-68
2022/06/05 03:17:46;;;;;;;14.48;10.10;;;;;;;;;;5094243;28;20487;-68
2022/06/05 03:20:13;;;;;;;12.55;9.68;;;;;;;;;;5094302;28;20130;-68
2022/06/05 03:22:40;;;;;;;11.70;9.60;;;;;;;;;;5094249;28;20121;-68
2022/06/05 03:25:07;;;;;;;11.98;9.77;;;;;;;;;;5094392;28;20143;-68
2022/06/05 03:27:34;;;;;;;13.02;9.93;;;;;;;;;;5094216;28;20079;-68
2022/06/05 03:30:01;;;;;;;11.73;10.05;;;;;;;;;;5092931;28;20455;-68
2022/06/05 03:32:27;;;;;;;16.58;10.15;;;;;;;;;;5094101;28;20082;-68
2022/06/05 03:34:54;;;;;;;11.30;9.73;;;;;;;;;;5094235;28;20080;-68
2022/06/05 03:37:20;;;;;;;12.95;9.90;;;;;;;;;;5094010;28;20504;-68
2022/06/05 03:39:47;;;;;;;14.25;10.40;;;;;;;;;;5093930;28;20556;-68
2022/06/05 03:42:14;;;;;;;10.82;9.48;;;;;;;;;;5094169;28;20113;-68
2022/06/05 03:44:42;;;;;;;14.10;11.00;;;;;;;;;;5093798;28;20056;-68
2022/06/05 03:47:09;;;;;;;12.20;9.43;;;;;;;;;;5094276;28;20075;-68
2022/06/05 03:49:36;;;;;;;;;;;;;;;;;;5094546;28;20071;-68
2022/06/05 03:52:03;;;;;;;12.02;9.27;;;;;;;;;;5094009;28;19959;-68
2022/06/05 03:54:30;;;;;;;11.80;9.88;;;;;;;;;;5093989;28;20100;-67
2022/06/05 03:56:56;;;;;;;10.85;9.75;;;;;;;;;;5093475;28;20097;-67
2022/06/05 03:59:23;;;;;;;10.82;9.70;;;;;;;;;;5093172;28;20075;-67
2022/06/05 04:01:49;;;;;;;10.27;9.23;;;;;;;;;;5093482;28;20483;-68
2022/06/05 04:04:16;;;;;;;12.90;10.00;;;;;;;;;;5093592;28;20075;-68
2022/06/05 04:06:42;;;;;;;12.77;9.90;;;;;;;;;;5093749;28;20127;-68
2022/06/05 04:09:09;;;;;;;14.90;10.60;;;;;;;;;;5093343;28;20492;-68
2022/06/05 04:11:37;;;;;;;13.73;9.73;;;;;;;;;;5093527;28;20129;-68
2022/06/05 04:14:04;;;;;;;11.35;10.10;;;;;;;;;;5093486;28;20083;-68
2022/06/05 04:16:32;;;;;;;13.05;10.13;;;;;;;;;;5093272;28;20385;-68
2022/06/05 04:18:59;;;;;;;12.43;8.77;;;;;;;;;;5093487;28;20048;-68
2022/06/05 04:21:27;;;;;;;13.30;9.60;;;;;;;;;;5093350;28;20126;-68
2022/06/05 04:23:54;;;;;;;11.85;9.13;;;;;;;;;;5093005;28;20083;-67
2022/06/05 04:26:25;;;;;;;10.90;9.07;;;;;;;;;;5093273;28;20071;-68
2022/06/05 04:28:53;;;;;;;10.68;8.77;;;;;;;;;;5093280;28;20048;-68
2022/06/05 04:31:21;;;;;;;12.45;9.43;;;;;;;;;;5093005;28;20052;-68
2022/06/05 04:33:48;;;;;;;9.25;8.18;;;;;;;;;;5092905;28;20093;-68
2022/06/05 04:36:15;;;;;;;9.20;7.78;;;;;;;;;;5093071;28;20094;-68
2022/06/05 04:38:41;;;;;;;10.27;7.70;;;;;;;;;;5093114;28;20079;-68
2022/06/05 04:41:08;;;;;;;9.18;8.13;;;;;;;;;;5092897;28;20135;-68
2022/06/05 04:43:34;;;;;;;10.10;7.15;;;;;;;;;;5092977;28;20086;-68
2022/06/05 04:46:01;;;;;;;7.15;6.47;;;;;;;;;;5093001;28;20044;-68
2022/06/05 04:48:27;;;;;;;8.60;7.32;;;;;;;;;;5092757;28;20048;-68
2022/06/05 04:50:54;;;;;;;9.55;7.60;;;;;;;;;;5092661;28;20093;-68
2022/06/05 04:53:20;;;;;;;7.07;6.38;;;;;;;;;;5092742;28;20048;-68
2022/06/05 04:55:46;;;;;;;8.38;6.40;;;;;;;;;;5092383;28;20090;-68
2022/06/05 04:58:13;;;;;;;7.50;6.45;;;;;;;;;;5092404;28;20082;-67
2022/06/05 05:00:40;;;;;;;8.40;6.25;;;;;;;;;;5092398;28;20478;-68
2022/06/05 05:03:06;;;;;;;9.93;6.15;;;;;;;;;;5092684;28;20113;-68
2022/06/05 05:05:34;;;;;;;8.43;6.47;;;;;;;;;;5092460;28;20058;-67
2022/06/05 05:08:00;;;;;;;;;;;;;;;;;;5093011;28;20095;-68
2022/06/05 05:10:27;;;;;;;9.15;6.22;;;;;;;;;;5092018;28;20391;-68
2022/06/05 05:12:54;;;;;;;7.63;6.47;;;;;;;;;;5091507;28;20438;-68
2022/06/05 05:15:20;;;;;;;7.18;5.90;;;;;;;;;;5092217;28;20519;-68
2022/06/05 05:17:47;;;;;;;6.15;5.55;;;;;;;;;;5092049;28;20098;-68
2022/06/05 05:20:13;;;;;;;7.85;6.53;;;;;;;;;;5092437;28;20097;-68
2022/06/05 05:22:40;;;;;;;7.45;6.28;;;;;;;;;;5091977;28;20080;-68
2022/06/05 05:25:07;;;;;;;6.53;5.88;;;;;;;;;;5092309;28;20039;-68
2022/06/05 05:27:34;;;;;;;6.93;5.90;;;;;;;;;;5092263;28;20079;-68
2022/06/05 05:30:02;;;;;;;12.07;5.60;;;;;;;;;;5092099;28;20105;-68
2022/06/05 05:32:28;;;;;;;6.30;5.70;;;;;;;;;;5091861;28;20350;-68
2022/06/05 05:34:55;;;;;;;5.72;5.13;;;;;;;;;;5091778;28;20127;-68
2022/06/05 05:37:21;;;;;;;5.15;4.65;;;;;;;;;;5091836;28;20048;-68
2022/06/05 05:42:33;;;;;;;5.18;4.78;;;;;;;;;;5092214;28;20095;-68
2022/06/05 05:44:59;;;;;;;5.60;5.10;;;;;;;;;;5091576;28;20098;-68
2022/06/05 05:47:28;;;;;;;5.47;4.70;;;;;;;;;;5090796;28;20102;-68
2022/06/05 05:49:59;;;;;;;5.43;4.93;;;;;;;;;;5091715;28;20088;-68
2022/06/05 05:52:25;;;;;;;4.75;4.35;;;;;;;;;;5091861;28;20040;-68
2022/06/05 05:54:52;;;;;;;4.82;4.32;;;;;;;;;;5091767;28;20084;-68
2022/06/05 05:57:18;;;;;;;4.38;4.00;;;;;;;;;;5091666;28;20539;-68
2022/06/05 05:59:45;;;;;;;4.50;3.57;;;;;;;;;;5091777;28;20145;-68
2022/06/05 06:02:18;;;;;;;4.40;4.00;;;;;;;;;;5091851;28;20044;-68
2022/06/05 06:04:45;;;;;;;3.83;3.53;;;;;;;;;;5091851;28;20327;-68
2022/06/05 06:07:12;;;;;;;4.72;3.67;;;;;;;;;;5091419;28;20052;-68
2022/06/05 06:09:39;;;;;;;4.40;4.00;;;;;;;;;;5091952;28;20055;-68
2022/06/05 06:12:05;;;;;;;4.07;3.67;;;;;;;;;;5091701;28;20106;-68
2022/06/05 06:14:33;;;;;;;3.78;3.40;;;;;;;;;;5091384;28;20048;-67
2022/06/05 06:16:59;;;;;;;3.50;3.20;;;;;;;;;;5091769;28;20097;-68
2022/06/05 06:19:26;;;;;;;4.20;3.28;;;;;;;;;;5090395;28;20052;-67
2022/06/05 06:21:52;;;;;;;3.50;3.20;;;;;;;;;;5091415;28;20450;-68
2022/06/05 06:24:19;;;;;;;4.03;3.50;;;;;;;;;;5095009;28;20091;-68
2022/06/05 06:26:45;;;;;;;3.42;3.13;;;;;;;;;;5095681;28;20132;-68
2022/06/05 06:29:12;;;;;;;3.40;3.13;;;;;;;;;;5095462;28;20094;-68
2022/06/05 06:31:39;;;;;;;3.35;3.00;;;;;;;;;;5095183;28;20087;-68
2022/06/05 06:34:05;;;;;;;3.55;3.25;;;;;;;;;;5095576;28;20078;-68
2022/06/05 06:36:32;;;;;;;3.30;3.10;;;;;;;;;;5095138;28;20090;-68
2022/06/05 06:39:15;;;;;;;3.30;3.00;;;;;;;;;;5094433;28;20044;-68
2022/06/05 06:41:42;;;;;;;3.53;3.22;;;;;;;;;;5095020;28;20048;-68
2022/06/05 06:44:09;;;;;;;3.30;3.10;;;;;;;;;;5094920;28;20096;-68
2022/06/05 06:46:36;;;;;;;3.92;3.33;;;;;;;;;;5094945;28;20087;-68
2022/06/05 06:49:03;;;;;;;3.67;3.38;;;;;;;;;;5095214;28;20052;-68
2022/06/05 06:51:29;;;;;;;3.50;3.30;;;;;;;;;;5082285;28;20131;-69
2022/06/05 06:53:56;;;;;;;4.00;3.30;;;;;;;;;;5092889;28;20452;-67
2022/06/05 06:56:24;;;;;;;3.78;3.47;;;;;;;;;;5091673;28;20102;-68
2022/06/05 06:58:53;;;;;;;4.43;4.03;;;;;;;;;;5093777;28;20144;-67
2022/06/05 07:01:19;;;;;;;3.72;3.42;;;;;;;;;;5094092;28;20106;-68
2022/06/05 07:03:45;;;;;;;3.30;3.10;;;;;;;;;;5092450;28;20044;-75
2022/06/05 07:06:13;;;;;;;3.72;3.42;;;;;;;;;;5093744;28;20450;-72
2022/06/05 07:08:40;;;;;;;3.60;3.30;;;;;;;;;;5081219;28;20048;-70
2022/06/05 07:11:07;;;;;;;3.70;3.40;;;;;;;;;;5093682;28;20148;-68
2022/06/05 07:13:34;;;;;;;3.75;3.50;;;;;;;;;;5094939;28;20090;-68
2022/06/05 07:16:01;;;;;;;4.03;3.70;;;;;;;;;;5093045;28;20091;-67
2022/06/05 07:18:27;;;;;;;3.55;3.35;;;;;;;;;;5094031;28;20092;-68
2022/06/05 07:20:53;;;;;;;3.38;3.08;;;;;;;;;;5094636;28;20415;-68
2022/06/05 07:23:20;;;;;;;3.80;3.50;;;;;;;;;;5094331;28;20090;-68
2022/06/05 07:25:48;;;;;;;3.33;3.03;;;;;;;;;;5069538;28;20076;-68
2022/06/05 07:28:14;;;;;;;;;;;;;;;;;;5073903;28;20088;-69
2022/06/05 07:30:44;;;;;;;3.03;2.83;;;;;;;;;;5081280;28;19924;-68
2022/06/05 07:33:12;;;;;;;3.30;3.10;;;;;;;;;;5083009;28;20086;-69
2022/06/05 07:35:38;;;;;;;6.32;3.10;;;;;;;;;;5092217;28;20075;-71
2022/06/05 07:38:05;;;;;;;3.05;2.85;;;;;;;;;;5093230;28;20084;-68
2022/06/05 07:40:40;;;;;;;3.90;3.60;;;;;;;;;;5093209;28;20446;-68
2022/06/05 07:43:09;;;;;;;3.25;3.05;;;;;;;;;;5089413;28;20067;-67
2022/06/05 07:45:38;;;;;;;4.82;3.20;;;;;;;;;;5092694;28;20086;-67
2022/06/05 07:48:05;;;;;;;3.00;2.80;;;;;;;;;;5093134;28;20051;-68
2022/06/05 07:50:32;;;;;;;4.30;3.30;;;;;;;;;;5093099;28;20052;-71
2022/06/05 07:55:44;;;;;;;5.07;4.57;;;;;;;;;;5092441;28;20082;-68
2022/06/05 07:58:10;;;;;;;4.95;4.45;;;;;;;;;;5092765;28;20430;-69
2022/06/05 08:00:37;;;;;;;3.15;2.85;;;;;;;;;;5092703;28;20504;-68
2022/06/05 08:03:03;;;;;;;3.47;3.17;;;;;;;;;;5092604;28;20813;-68
2022/06/05 08:05:30;;;;;;;6.53;5.03;;;;;;;;;;5092549;28;20083;-68
2022/06/05 08:07:56;;;;;;;4.00;3.60;;;;;;;;;;5091981;28;20048;-69
2022/06/05 08:10:23;;;;;;;4.15;3.72;;;;;;;;;;5092764;28;20121;-71
2022/06/05 08:12:49;;;;;;;4.88;3.60;;;;;;;;;;5092686;28;20076;-76
2022/06/05 08:15:16;;;;;;;4.35;3.80;;;;;;;;;;5093039;28;20052;-66
2022/06/05 08:17:43;;;;;;;3.47;3.17;;;;;;;;;;5092621;28;20436;-69
2022/06/05 08:20:10;;;;;;;2.85;2.65;;;;;;;;;;5085112;28;20396;-69
2022/06/05 08:22:36;;;;;;;3.10;2.83;;;;;;;;;;5091823;28;20604;-69
2022/06/05 08:25:03;;;;;;;3.03;2.63;;;;;;;;;;5092137;28;20075;-69
2022/06/05 08:27:29;;;;;;;3.30;3.10;;;;;;;;;;5092410;28;20048;-69
2022/06/05 08:29:56;;;;;;;3.47;2.85;;;;;;;;;;5092313;28;20128;-72
2022/06/05 08:32:24;;;;;;;3.13;2.50;;;;;;;;;;5092487;28;20052;-67
2022/06/05 08:34:51;;;;;;;2.97;2.78;;;;;;;;;;5092270;28;20075;-70
2022/06/05 08:42:52;;;;;;;2.75;2.55;;;;;;;;;;5091858;28;20052;-68
2022/06/05 08:45:23;;;;;;;3.38;2.50;;;;;;;;;;5089430;28;20135;-68
2022/06/05 08:47:56;;;;;;;3.03;2.72;;;;;;;;;;5090904;28;20083;-68
2022/06/05 08:50:35;;;;;;;3.58;2.40;;;;;;;;;;5091166;28;20079;-69
2022/06/05 08:53:14;;;;;;;2.92;2.72;;;;;;;;;;5090494;28;20452;-68
2022/06/05 08:55:42;;;;;;;3.33;3.03;;;;;;;;;;5090652;28;20557;-72
2022/06/05 08:58:27;;;;;;;2.78;2.58;;;;;;;;;;5091555;28;20097;-69
2022/06/05 09:01:00;;;;;;;3.65;2.65;;;;;;;;;;5091554;28;20093;-70
2022/06/05 09:03:39;;;;;;;2.83;2.60;;;;;;;;;;5092008;28;20077;-70
2022/06/05 09:06:12;;;;;;;2.70;2.50;;;;;;;;;;5091165;28;20139;-70
2022/06/05 09:08:40;;;;;;;3.33;3.10;;;;;;;;;;5090084;28;20463;-72
2022/06/05 09:11:15;;;;;;;3.03;2.80;;;;;;;;;;5091720;28;20040;-68
2022/06/05 09:13:47;;;;;;;3.75;3.00;;;;;;;;;;5091793;28;20097;-68
2022/06/05 09:16:22;;;;;;;3.30;3.10;;;;;;;;;;5091893;28;20071;-68
2022/06/05 09:18:49;;;;;;;2.83;2.63;;;;;;;;;;5092314;28;20071;-67
2022/06/05 09:21:21;;;;;;;3.00;2.80;;;;;;;;;;5091925;28;20071;-73
2022/06/05 09:23:47;;;;;;;3.22;2.92;;;;;;;;;;5090876;28;20154;-72
2022/06/05 09:26:19;;;;;;;4.30;3.20;;;;;;;;;;5092156;28;20559;-67
2022/06/05 09:28:51;;;;;;;3.85;3.45;;;;;;;;;;5091950;28;20097;-73
2022/06/05 09:31:36;;;;;;;4.10;3.70;;;;;;;;;;5090276;28;20511;-72
2022/06/05 09:34:09;;;;;;;4.32;3.55;;;;;;;;;;5090824;28;20040;-69
2022/06/05 09:36:38;;;;;;;3.45;3.10;;;;;;;;;;5090248;28;20079;-69
2022/06/05 09:39:30;;;;;;;5.80;3.22;;;;;;;;;;5090710;28;20044;-68
2022/06/05 09:42:07;;;;;;;3.85;3.47;;;;;;;;;;5091303;28;20072;-68
2022/06/05 09:44:48;;;;;;;3.05;2.83;;;;;;;;;;5091779;28;20411;-68
2022/06/05 09:47:20;;;;;;;3.28;2.97;;;;;;;;;;5091792;28;20051;-67
2022/06/05 09:49:51;;;;;;;3.85;3.55;;;;;;;;;;5091801;28;20090;-68
2022/06/05 09:52:19;;;;;;;3.45;3.17;;;;;;;;;;5091783;28;20105;-67
2022/06/05 09:55:06;;;;;;;3.78;3.47;;;;;;;;;;5091313;28;20086;-68
2022/06/05 09:58:25;;;;;;;3.95;3.65;;;;;;;;;;5092035;28;20067;-68
2022/06/05 10:00:46;;;;;;;4.75;4.35;;;;;;;;;;5098408;28;20071;-68
2022/06/05 10:03:13;;;;;;;4.28;3.88;;;;;;;;;;5098132;28;20168;-68
2022/06/05 10:05:45;;;;;;;3.90;3.60;;;;;;;;;;5098185;28;20097;-68
2022/06/05 10:08:23;;;;;;;4.45;3.80;;;;;;;;;;5089988;28;20443;-71
2022/06/05 10:10:53;;;;;;;5.25;4.45;;;;;;;;;;5097504;28;20070;-69
2022/06/05 10:13:22;;;;;;;4.68;4.28;;;;;;;;;;5097103;28;20080;-68
2022/06/05 10:15:49;;;;;;;4.57;4.18;;;;;;;;;;5096055;28;20048;-68
2022/06/05 10:18:33;;;;;;;4.70;4.30;;;;;;;;;;5097593;28;20488;-68
2022/06/05 10:21:07;;;;;;;5.82;5.32;;;;;;;;;;5097986;28;20063;-68
2022/06/05 10:23:44;;;;;;;4.93;4.53;;;;;;;;;;5096408;28;20495;-67
2022/06/05 10:26:15;;;;;;;5.10;4.70;;;;;;;;;;5097743;28;20070;-68
2022/06/05 10:28:43;;;;;;;5.72;4.63;;;;;;;;;;5098254;28;20097;-67
2022/06/05 10:31:22;;;;;;;4.97;4.38;;;;;;;;;;5097999;28;20102;-67
2022/06/05 10:33:53;;;;;;;5.45;4.95;;;;;;;;;;5098339;28;20079;-67
2022/06/05 10:36:29;;;;;;;5.40;4.90;;;;;;;;;;5098300;28;20044;-67
2022/06/05 10:39:00;;;;;;;5.47;5.07;;;;;;;;;;5097985;28;20537;-67
2022/06/05 10:41:38;;;;;;;5.95;5.35;;;;;;;;;;5098312;28;20048;-67
2022/06/05 10:44:04;;;;;;;5.80;5.30;;;;;;;;;;5097410;28;20083;-68
2022/06/05 10:46:32;;;;;;;5.43;4.93;;;;;;;;;;5090801;28;20144;-67
2022/06/05 10:48:58;;;;;;;;;;;;;;;;;;5098162;28;20046;-68
2022/06/05 10:51:32;;;;;;;6.18;5.63;;;;;;;;;;5097842;28;19991;-67
2022/06/05 10:54:06;;;;;;;5.95;5.45;;;;;;;;;;5097753;28;20109;-68
2022/06/05 10:56:33;;;;;;;6.60;6.00;;;;;;;;;;5097656;28;20083;-68
2022/06/05 10:59:18;;;;;;;6.20;5.63;;;;;;;;;;5098219;28;20101;-67
2022/06/05 11:02:01;;;;;;;6.13;5.53;;;;;;;;;;5097571;28;20040;-67
2022/06/05 11:04:33;;;;;;;6.38;5.78;;;;;;;;;;5082563;28;20138;-67
2022/06/05 11:07:15;;;;;;;6.25;5.75;;;;;;;;;;5097640;28;20079;-67
2022/06/05 11:09:51;;;;;;;6.60;6.00;;;;;;;;;;5093522;28;20605;-67
2022/06/05 11:15:24;;;;;;;5.85;5.35;;;;;;;;;;5091808;28;20499;-68
2022/06/05 11:17:50;;;;;;;6.45;5.85;;;;;;;;;;5093781;28;20044;-68
2022/06/05 11:20:19;;;;;;;6.45;5.85;;;;;;;;;;5093679;28;20067;-67
2022/06/05 11:22:58;;;;;;;6.78;6.18;;;;;;;;;;5093903;28;20467;-68
2022/06/05 11:25:36;;;;;;;6.05;5.45;;;;;;;;;;5094490;28;20173;-67
2022/06/05 11:28:20;;;;;;;5.97;5.38;;;;;;;;;;5094112;28;20048;-67
2022/06/05 11:30:51;;;;;;;7.53;5.75;;;;;;;;;;5094395;28;20079;-67
2022/06/05 11:33:25;;;;;;;6.30;5.30;;;;;;;;;;5094220;28;20080;-67
2022/06/05 11:36:12;;;;;;;7.20;6.35;;;;;;;;;;5093051;28;20051;-67
2022/06/05 11:38:57;;;;;;;6.78;5.90;;;;;;;;;;5093921;28;20491;-67
2022/06/05 11:41:23;;;;;;;6.25;5.65;;;;;;;;;;5094382;28;20068;-67
2022/06/05 11:44:04;;;;;;;7.10;6.45;;;;;;;;;;5093957;28;20456;-67
2022/06/05 11:46:36;;;;;;;7.55;6.38;;;;;;;;;;5093941;28;20051;-68
2022/06/05 11:49:35;;;;;;;7.20;6.43;;;;;;;;;;5094068;28;20074;-67
2022/06/05 11:52:08;;;;;;;7.00;6.30;;;;;;;;;;5092427;28;20047;-67
2022/06/05 11:54:43;;;;;;;6.78;6.07;;;;;;;;;;5093289;28;20079;-67
2022/06/05 11:57:21;;;;;;;7.45;6.32;;;;;;;;;;5093000;28;20079;-70
2022/06/05 11:59:48;;;;;;;6.65;5.95;;;;;;;;;;5087338;28;20083;-68
2022/06/05 12:02:34;;;;;;;6.22;5.63;;;;;;;;;;5093234;28;20048;-70
2022/06/05 12:05:04;;;;;;;7.40;5.95;;;;;;;;;;5089635;28;20550;-68
2022/06/05 12:07:31;;;;;;;7.30;6.03;;;;;;;;;;5092495;28;20052;-68
2022/06/05 12:10:16;;;;;;;7.25;5.97;;;;;;;;;;5093278;28;20087;-67
2022/06/05 12:12:46;;;;;;;7.13;6.15;;;;;;;;;;5093240;28;20099;-67
2022/06/05 12:15:33;;;;;;;7.05;6.35;;;;;;;;;;5093316;28;20079;-68
2022/06/05 12:18:00;;;;;;;6.55;5.90;;;;;;;;;;5089880;28;20514;-69
2022/06/05 12:20:46;;;;;;;7.70;6.90;;;;;;;;;;5091525;28;20079;-68
2022/06/05 12:23:19;;;;;;;7.05;5.82;;;;;;;;;;5092943;28;20453;-69
2022/06/05 12:25:50;;;;;;;6.80;6.20;;;;;;;;;;5091578;28;20093;-67
2022/06/05 12:28:28;;;;;;;7.15;6.30;;;;;;;;;;5093322;28;20087;-67
2022/06/05 12:30:59;;;;;;;7.05;6.00;;;;;;;;;;5092890;28;20106;-66
2022/06/05 12:33:38;;;;;;;6.63;5.93;;;;;;;;;;5093109;28;20048;-66
2022/06/05 12:36:11;;;;;;;6.45;5.85;;;;;;;;;;5092797;28;20159;-66
2022/06/05 12:38:47;;;;;;;6.28;5.68;;;;;;;;;;5092832;28;20075;-66
2022/06/05 12:41:14;;;;;;;7.78;6.97;;;;;;;;;;5092981;28;20452;-67
2022/06/05 12:43:41;;;;;;;;;;;;;;;;;;5093296;28;20098;-67
2022/06/05 12:46:16;;;;;;;10.47;6.93;;;;;;;;;;5092641;28;19924;-67
2022/06/05 12:48:44;;;;;;;8.73;6.68;;;;;;;;;;5092891;28;20052;-67
2022/06/05 12:51:15;;;;;;;8.10;7.28;;;;;;;;;;5092477;28;20088;-67
2022/06/05 12:53:46;;;;;;;7.68;6.88;;;;;;;;;;5092821;28;20048;-67
2022/06/05 12:56:12;;;;;;;8.07;7.28;;;;;;;;;;5091702;28;20043;-67
2022/06/05 12:58:47;;;;;;;7.65;6.95;;;;;;;;;;5092687;28;20044;-67
2022/06/05 13:01:19;;;;;;;7.93;7.13;;;;;;;;;;5091836;28;20083;-66
2022/06/05 13:03:51;;;;;;;7.70;6.47;;;;;;;;;;5092430;28;20052;-67
2022/06/05 13:06:25;;;;;;;7.40;6.65;;;;;;;;;;5092280;28;20083;-67
2022/06/05 13:08:55;;;;;;;7.68;6.68;;;;;;;;;;5091195;28;20427;-67
2022/06/05 13:11:21;;;;;;;7.10;6.45;;;;;;;;;;5092293;28;20530;-67
2022/06/05 13:13:58;;;;;;;6.85;5.85;;;;;;;;;;5091858;28;20139;-67
2022/06/05 13:16:43;;;;;;;7.75;6.68;;;;;;;;;;5091879;28;20095;-67
2022/06/05 13:19:29;;;;;;;8.88;6.50;;;;;;;;;;5091304;28;20511;-67
2022/06/05 13:21:58;;;;;;;7.05;6.38;;;;;;;;;;5091998;28;20071;-67
2022/06/05 13:24:27;;;;;;;7.32;6.47;;;;;;;;;;5090274;28;20071;-67
2022/06/05 13:27:11;;;;;;;7.35;6.45;;;;;;;;;;5071718;28;20473;-67
2022/06/05 13:29:58;;;;;;;6.82;6.13;;;;;;;;;;5074635;28;20087;-67
2022/06/05 13:32:27;;;;;;;7.47;6.75;;;;;;;;;;5091293;28;20058;-67
2022/06/05 13:35:18;;;;;;;7.00;6.30;;;;;;;;;;5092131;28;20044;-67
2022/06/05 13:37:44;;;;;;;7.28;6.45;;;;;;;;;;5092118;28;20082;-67
2022/06/05 13:40:15;;;;;;;7.25;6.55;;;;;;;;;;5091789;28;20048;-67
2022/06/05 13:42:43;;;;;;;8.20;7.18;;;;;;;;;;5091878;28;20084;-67
2022/06/05 13:45:15;;;;;;;7.18;6.45;;;;;;;;;;5091572;28;20052;-67
2022/06/05 13:47:48;;;;;;;8.05;7.22;;;;;;;;;;5092033;28;20135;-67
2022/06/05 13:50:23;;;;;;;7.93;6.95;;;;;;;;;;5092044;28;20082;-67
2022/06/05 13:52:52;;;;;;;7.07;6.30;;;;;;;;;;5091935;28;20044;-67
2022/06/05 13:55:27;;;;;;;7.63;6.82;;;;;;;;;;5090333;28;20072;-68
2022/06/05 13:58:05;;;;;;;7.55;6.63;;;;;;;;;;5091659;28;20044;-67
2022/06/05 14:00:32;;;;;;;8.35;7.45;;;;;;;;;;5091562;28;20071;-67
2022/06/05 14:03:10;;;;;;;8.02;6.75;;;;;;;;;;5091811;28;20075;-67
2022/06/05 14:05:49;;;;;;;7.72;6.70;;;;;;;;;;5091618;28;20044;-68
2022/06/05 14:08:29;;;;;;;7.78;6.30;;;;;;;;;;5091622;28;20086;-67
2022/06/05 14:10:58;;;;;;;8.00;7.20;;;;;;;;;;5091797;28;20083;-68
2022/06/05 14:13:26;;;;;;;8.38;7.57;;;;;;;;;;5091800;28;20048;-68
2022/06/05 14:15:54;;;;;;;7.30;6.38;;;;;;;;;;5091542;28;20079;-67
2022/06/05 14:18:40;;;;;;;7.90;6.90;;;;;;;;;;5091830;28;20051;-67
2022/06/05 14:21:20;;;;;;;9.35;8.15;;;;;;;;;;5091430;28;20048;-67
2022/06/05 14:24:18;;;;;;;8.70;6.50;;;;;;;;;;5090324;28;20116;-67
2022/06/05 14:26:48;;;;;;;7.97;6.82;;;;;;;;;;5091554;28;20079;-68
2022/06/05 14:29:21;;;;;;;9.18;7.30;;;;;;;;;;5091363;28;20055;-67
2022/06/05 14:31:54;;;;;;;8.02;7.22;;;;;;;;;;5091344;28;20048;-67
2022/06/05 14:34:21;;;;;;;8.45;7.38;;;;;;;;;;5091442;28;20084;-67
2022/06/05 14:36:49;;;;;;;9.40;8.20;;;;;;;;;;5091694;28;20044;-68
2022/06/05 14:39:15;;;;;;;8.23;7.15;;;;;;;;;;5091617;28;20110;-67
2022/06/05 14:41:48;;;;;;;7.60;6.80;;;;;;;;;;5091160;28;20079;-67
2022/06/05 14:44:27;;;;;;;8.93;7.65;;;;;;;;;;5092877;28;20091;-68
2022/06/05 14:46:57;;;;;;;8.40;7.13;;;;;;;;;;5095305;28;20090;-68
2022/06/05 14:49:40;;;;;;;8.88;7.38;;;;;;;;;;5093885;28;20052;-67
2022/06/05 14:52:24;;;;;;;8.38;6.72;;;;;;;;;;5095154;28;20052;-67
2022/06/05 14:58:01;;;;;;;8.10;7.30;;;;;;;;;;5094785;28;20544;-67
2022/06/05 15:00:28;;;;;;;8.80;7.80;;;;;;;;;;5094156;28;20125;-67
2022/06/05 15:03:10;;;;;;;9.20;8.05;;;;;;;;;;5094411;28;20528;-67
2022/06/05 15:05:49;;;;;;;9.77;7.47;;;;;;;;;;5095011;28;20094;-67
2022/06/05 15:08:15;;;;;;;10.15;8.15;;;;;;;;;;5093966;28;20083;-66
2022/06/05 15:10:46;;;;;;;9.18;7.85;;;;;;;;;;5094451;28;20155;-67
2022/06/05 15:13:27;;;;;;;11.15;8.57;;;;;;;;;;5089196;28;20094;-67
2022/06/05 15:16:11;;;;;;;11.60;8.85;;;;;;;;;;5093098;28;20082;-67
2022/06/05 15:18:38;;;;;;;11.32;9.43;;;;;;;;;;5094328;28;20769;-67
2022/06/05 15:21:14;;;;;;;11.35;8.35;;;;;;;;;;5094382;28;20078;-67
2022/06/05 15:23:48;;;;;;;11.43;8.85;;;;;;;;;;5093176;28;20060;-67